createdAt,value
2018-03-04T00:00:59.222Z,57.16
2018-03-04T00:03:27.604Z,56.98
2018-03-04T00:05:56.008Z,56.78
2018-03-04T00:08:24.415Z,57.04
2018-03-04T00:10:52.798Z,57.27
2018-03-04T00:13:21.190Z,57.39
2018-03-04T00:15:49.578Z,57.16
2018-03-04T00:18:17.962Z,56.89
2018-03-04T00:20:46.330Z,56.79
2018-03-04T00:23:14.740Z,56.87
2018-03-04T00:25:43.129Z,56.82
2018-03-04T00:28:11.506Z,56.60
2018-03-04T00:30:39.893Z,56.53
2018-03-04T00:33:08.262Z,56.50
2018-03-04T00:35:36.648Z,56.88
2018-03-04T00:38:05.027Z,56.82
2018-03-04T00:40:33.406Z,56.77
2018-03-04T00:43:01.836Z,56.61
2018-03-04T00:45:30.215Z,56.63
2018-03-04T00:47:59.461Z,56.24
2018-03-04T00:50:27.896Z,55.98
2018-03-04T00:52:57.039Z,55.76
2018-03-04T00:55:25.408Z,55.69
2018-03-04T00:57:53.807Z,55.92
2018-03-04T01:00:22.218Z,56.04
2018-03-04T01:02:50.657Z,56.04
2018-03-04T01:05:19.052Z,55.93
2018-03-04T01:07:47.551Z,55.58
2018-03-04T01:10:15.993Z,55.32
2018-03-04T01:12:44.380Z,55.13
2018-03-04T01:15:12.785Z,54.75
2018-03-04T01:17:41.153Z,54.96
2018-03-04T01:20:09.533Z,55.04
2018-03-04T01:22:37.936Z,54.85
2018-03-04T01:25:07.083Z,54.97
2018-03-04T01:27:35.467Z,55.08
2018-03-04T01:30:03.873Z,54.94
2018-03-04T01:32:32.240Z,54.91
2018-03-04T01:35:00.613Z,55.20
2018-03-04T01:37:29.005Z,55.18
2018-03-04T01:39:57.410Z,55.08
2018-03-04T01:42:26.549Z,54.84
2018-03-04T01:44:54.931Z,54.54
2018-03-04T01:47:23.306Z,54.86
2018-03-04T01:49:51.737Z,54.82
2018-03-04T01:52:20.889Z,54.97
2018-03-04T01:54:49.278Z,55.48
2018-03-04T01:57:17.660Z,55.57
2018-03-04T01:59:46.054Z,55.87
2018-03-04T02:02:14.457Z,55.61
2018-03-04T02:04:43.594Z,55.47
2018-03-04T02:07:11.975Z,55.55
2018-03-04T02:09:40.413Z,55.53
2018-03-04T02:12:09.566Z,55.57
2018-03-04T02:14:37.970Z,55.76
2018-03-04T02:17:06.484Z,55.90
2018-03-04T02:19:34.886Z,55.88
2018-03-04T02:22:03.286Z,56.05
2018-03-04T02:24:31.679Z,56.34
2018-03-04T02:27:00.046Z,56.20
2018-03-04T02:29:28.526Z,56.06
2018-03-04T02:31:56.899Z,56.08
2018-03-04T02:34:25.534Z,56.13
2018-03-04T02:36:53.852Z,56.12
2018-03-04T02:39:22.224Z,56.17
2018-03-04T02:41:50.622Z,56.17
2018-03-04T02:44:19.002Z,56.19
2018-03-04T02:46:47.392Z,56.01
2018-03-04T02:49:15.795Z,55.93
2018-03-04T02:51:44.944Z,56.00
2018-03-04T02:54:13.341Z,55.62
2018-03-04T02:56:41.772Z,55.81
2018-03-04T02:59:10.162Z,55.76
2018-03-04T03:01:38.544Z,55.78
2018-03-04T03:04:06.938Z,55.88
2018-03-04T03:06:35.324Z,56.00
2018-03-04T03:09:03.706Z,56.14
2018-03-04T03:11:32.113Z,55.93
2018-03-04T03:14:01.273Z,56.06
2018-03-04T03:16:29.647Z,56.40
2018-03-04T03:18:58.820Z,56.62
2018-03-04T03:21:27.209Z,56.67
2018-03-04T03:23:55.606Z,56.76
2018-03-04T03:26:25.544Z,57.06
2018-03-04T03:28:54.691Z,57.21
2018-03-04T03:31:23.092Z,57.33
2018-03-04T03:33:51.461Z,57.73
2018-03-04T03:36:19.858Z,57.99
2018-03-04T03:38:49.003Z,58.14
2018-03-04T03:41:17.402Z,58.16
2018-03-04T03:43:45.829Z,58.21
2018-03-04T03:46:14.197Z,58.19
2018-03-04T03:48:42.561Z,58.50
2018-03-04T03:51:10.973Z,58.62
2018-03-04T03:53:40.113Z,58.97
2018-03-04T03:56:08.473Z,59.11
2018-03-04T03:58:36.876Z,59.46
2018-03-04T04:01:05.247Z,59.55
2018-03-04T04:03:33.618Z,59.64
2018-03-04T04:06:02.035Z,59.57
2018-03-04T04:08:30.469Z,59.64
2018-03-04T04:10:58.834Z,59.98
2018-03-04T04:13:28.004Z,59.95
2018-03-04T04:15:56.389Z,59.88
2018-03-04T04:18:24.764Z,59.85
2018-03-04T04:20:53.168Z,60.00
2018-03-04T04:23:22.340Z,59.77
2018-03-04T04:25:50.701Z,59.47
2018-03-04T04:28:19.070Z,59.68
2018-03-04T04:30:47.498Z,59.63
2018-03-04T04:33:16.637Z,59.76
2018-03-04T04:35:45.014Z,59.83
2018-03-04T04:38:13.421Z,59.77
2018-03-04T04:40:41.829Z,59.90
2018-03-04T04:43:10.992Z,59.96
2018-03-04T04:45:39.374Z,60.06
2018-03-04T04:48:07.735Z,59.94
2018-03-04T04:50:36.141Z,59.94
2018-03-04T04:53:04.513Z,60.11
2018-03-04T04:55:32.900Z,60.18
2018-03-04T04:58:01.315Z,59.93
2018-03-04T05:00:29.709Z,59.61
2018-03-04T05:02:58.129Z,59.61
2018-03-04T05:05:26.519Z,59.72
2018-03-04T05:07:54.913Z,59.71
2018-03-04T05:10:24.064Z,59.84
2018-03-04T05:12:52.474Z,59.82
2018-03-04T05:15:20.910Z,59.63
2018-03-04T05:17:49.301Z,59.95
2018-03-04T05:20:17.684Z,59.87
2018-03-04T05:22:46.074Z,59.87
2018-03-04T05:25:14.462Z,60.17
2018-03-04T05:27:42.871Z,60.13
2018-03-04T05:30:11.246Z,59.94
2018-03-04T05:32:40.415Z,59.92
2018-03-04T05:35:08.852Z,60.07
2018-03-04T05:37:37.246Z,59.90
2018-03-04T05:40:05.654Z,59.86
2018-03-04T05:42:34.032Z,59.72
2018-03-04T05:45:02.432Z,60.14
2018-03-04T05:47:31.590Z,59.94
2018-03-04T05:49:59.995Z,59.66
2018-03-04T05:52:28.394Z,59.80
2018-03-04T05:54:56.774Z,60.22
2018-03-04T05:57:25.912Z,60.14
2018-03-04T05:59:54.324Z,60.12
2018-03-04T06:02:23.474Z,60.22
2018-03-04T06:04:51.891Z,60.36
2018-03-04T06:07:20.286Z,60.05
2018-03-04T06:09:49.426Z,60.05
2018-03-04T06:12:19.474Z,60.33
2018-03-04T06:14:47.846Z,60.17
2018-03-04T06:17:16.229Z,60.02
2018-03-04T06:19:44.610Z,60.03
2018-03-04T06:22:13.023Z,59.87
2018-03-04T06:24:42.199Z,59.83
2018-03-04T06:27:11.405Z,59.70
2018-03-04T06:29:40.570Z,59.38
2018-03-04T06:32:08.975Z,59.13
2018-03-04T06:34:38.142Z,59.17
2018-03-04T06:37:06.529Z,59.52
2018-03-04T06:39:34.908Z,59.51
2018-03-04T06:42:03.311Z,59.28
2018-03-04T06:44:31.729Z,59.46
2018-03-04T06:47:00.107Z,58.97
2018-03-04T06:49:28.528Z,58.67
2018-03-04T06:51:56.926Z,58.14
2018-03-04T06:54:25.302Z,58.44
2018-03-04T06:56:53.692Z,59.10
2018-03-04T06:59:22.945Z,58.17
2018-03-04T07:01:51.318Z,59.08
2018-03-04T07:04:19.711Z,56.63
2018-03-04T07:06:48.110Z,56.11
2018-03-04T07:09:16.528Z,56.62
2018-03-04T07:11:44.897Z,57.30
2018-03-04T07:14:13.306Z,57.10
2018-03-04T07:16:41.702Z,56.60
2018-03-04T07:19:10.124Z,56.47
2018-03-04T07:21:39.256Z,57.42
2018-03-04T07:24:07.645Z,56.55
2018-03-04T07:26:36.028Z,57.77
2018-03-04T07:29:04.465Z,56.61
2018-03-04T07:31:33.613Z,57.93
2018-03-04T07:34:01.998Z,56.17
2018-03-04T07:36:30.405Z,56.47
2018-03-04T07:38:59.559Z,55.87
2018-03-04T07:41:27.944Z,55.78
2018-03-04T07:43:56.346Z,54.90
2018-03-04T07:46:24.727Z,54.87
2018-03-04T07:48:53.122Z,54.81
2018-03-04T07:51:22.301Z,54.97
2018-03-04T07:53:50.674Z,56.76
2018-03-04T07:56:19.051Z,54.95
2018-03-04T07:58:47.438Z,53.94
2018-03-04T08:01:16.594Z,53.36
2018-03-04T08:03:44.998Z,53.29
2018-03-04T08:06:13.362Z,53.56
2018-03-04T08:08:41.750Z,53.26
2018-03-04T08:11:10.155Z,53.25
2018-03-04T08:13:38.532Z,53.42
2018-03-04T08:16:07.675Z,52.57
2018-03-04T08:18:36.169Z,52.52
2018-03-04T08:21:04.508Z,52.58
2018-03-04T08:23:33.652Z,50.69
2018-03-04T08:26:19.657Z,50.95
2018-03-04T08:28:48.048Z,51.14
2018-03-04T08:31:16.425Z,51.07
2018-03-04T08:33:44.862Z,50.44
2018-03-04T08:36:13.240Z,50.12
2018-03-04T08:38:41.624Z,49.50
2018-03-04T08:41:10.014Z,49.35
2018-03-04T08:43:38.417Z,49.30
2018-03-04T08:46:07.190Z,48.96
2018-03-04T08:48:35.566Z,49.39
2018-03-04T08:51:03.981Z,49.04
2018-03-04T08:53:33.126Z,48.43
2018-03-04T08:56:01.506Z,49.17
2018-03-04T08:58:29.938Z,48.32
2018-03-04T09:00:58.350Z,47.86
2018-03-04T09:03:26.741Z,47.61
2018-03-04T09:05:55.986Z,46.82
2018-03-04T09:08:25.125Z,46.15
2018-03-04T09:10:53.524Z,45.95
2018-03-04T09:13:21.914Z,46.63
2018-03-04T09:15:50.297Z,46.60
2018-03-04T09:18:18.698Z,47.54
2018-03-04T09:20:47.086Z,47.23
2018-03-04T09:23:16.221Z,46.45
2018-03-04T09:25:44.634Z,46.96
2018-03-04T09:28:13.002Z,46.06
2018-03-04T09:30:41.417Z,44.96
2018-03-04T09:33:10.682Z,41.76
2018-03-04T09:38:36.042Z,33.60
2018-03-04T09:41:05.195Z,32.78
2018-03-04T09:43:33.655Z,34.25
2018-03-04T09:46:02.038Z,33.89
2018-03-04T09:48:30.414Z,35.09
2018-03-04T09:50:58.821Z,34.25
2018-03-04T09:53:27.525Z,34.40
2018-03-04T09:55:56.018Z,35.21
2018-03-04T09:58:25.186Z,36.51
2018-03-04T10:00:53.593Z,37.39
2018-03-04T10:03:22.762Z,37.83
2018-03-04T10:05:52.299Z,37.80
2018-03-04T10:08:20.840Z,36.41
2018-03-04T10:10:49.206Z,36.07
2018-03-04T10:13:17.576Z,35.48
2018-03-04T10:15:45.951Z,31.82
2018-03-04T10:18:14.316Z,30.80
2018-03-04T10:20:42.724Z,28.95
2018-03-04T10:23:11.107Z,28.60
2018-03-04T10:25:39.480Z,29.74
2018-03-04T10:28:07.889Z,28.23
2018-03-04T10:30:36.291Z,29.46
2018-03-04T10:33:05.425Z,31.26
2018-03-04T10:35:33.817Z,34.09
2018-03-04T10:38:02.185Z,34.53
2018-03-04T10:40:30.571Z,36.08
2018-03-04T10:42:58.966Z,36.83
2018-03-04T10:45:27.342Z,37.64
2018-03-04T10:47:55.746Z,37.91
2018-03-04T10:50:24.881Z,37.25
2018-03-04T10:52:53.289Z,36.72
2018-03-04T10:55:22.406Z,35.97
2018-03-04T10:57:50.782Z,35.95
2018-03-04T11:00:24.937Z,35.76
2018-03-04T11:02:59.707Z,36.98
2018-03-04T11:05:28.131Z,36.92
2018-03-04T11:07:57.256Z,37.44
2018-03-04T11:10:25.620Z,37.00
2018-03-04T11:12:54.469Z,37.77
2018-03-04T11:15:22.878Z,38.06
2018-03-04T11:17:51.299Z,38.64
2018-03-04T11:20:19.668Z,38.58
2018-03-04T11:22:48.033Z,38.36
2018-03-04T11:25:16.467Z,37.25
2018-03-04T11:27:44.841Z,34.43
2018-03-04T11:30:13.202Z,34.15
2018-03-04T11:32:41.622Z,35.28
2018-03-04T11:35:10.765Z,36.92
2018-03-04T11:37:39.129Z,38.38
2018-03-04T11:40:07.526Z,39.31
2018-03-04T11:42:35.905Z,40.46
2018-03-04T11:45:04.309Z,40.40
2018-03-04T11:47:32.711Z,40.43
2018-03-04T11:50:01.119Z,40.49
2018-03-04T11:52:30.218Z,40.44
2018-03-04T11:54:58.651Z,40.22
2018-03-04T11:57:27.047Z,39.34
2018-03-04T11:59:56.194Z,39.94
2018-03-04T12:02:24.602Z,40.10
2018-03-04T12:04:52.961Z,40.87
2018-03-04T12:07:21.385Z,42.82
2018-03-04T12:09:50.570Z,42.97
2018-03-04T12:12:19.705Z,44.46
2018-03-04T12:14:48.083Z,44.28
2018-03-04T12:17:16.480Z,43.23
2018-03-04T12:19:44.873Z,43.24
2018-03-04T12:22:13.248Z,43.29
2018-03-04T12:24:41.657Z,43.80
2018-03-04T12:27:10.795Z,44.24
2018-03-04T12:29:39.210Z,44.93
2018-03-04T12:32:07.683Z,45.03
2018-03-04T12:34:36.088Z,44.94
2018-03-04T12:37:04.605Z,45.12
2018-03-04T12:39:32.977Z,45.16
2018-03-04T12:42:01.380Z,44.96
2018-03-04T12:44:29.838Z,44.78
2018-03-04T12:46:58.273Z,45.01
2018-03-04T12:49:26.695Z,45.40
2018-03-04T12:51:55.102Z,44.23
2018-03-04T12:54:23.536Z,42.97
2018-03-04T12:56:51.946Z,44.93
2018-03-04T12:59:20.314Z,45.98
2018-03-04T13:01:48.689Z,46.46
2018-03-04T13:04:17.097Z,46.55
2018-03-04T13:06:45.489Z,46.65
2018-03-04T13:09:13.853Z,46.99
2018-03-04T13:11:42.354Z,47.83
2018-03-04T13:14:10.760Z,48.04
2018-03-04T13:16:39.902Z,48.05
2018-03-04T13:19:08.291Z,47.65
2018-03-04T13:21:36.693Z,47.36
2018-03-04T13:24:05.122Z,46.55
2018-03-04T13:26:33.490Z,45.92
2018-03-04T13:29:02.120Z,44.21
2018-03-04T13:31:30.526Z,42.72
2018-03-04T13:33:59.754Z,41.55
2018-03-04T13:36:28.150Z,41.91
2018-03-04T13:38:56.521Z,41.11
2018-03-04T13:41:24.918Z,40.91
2018-03-04T13:43:53.297Z,40.81
2018-03-04T13:46:21.733Z,41.29
2018-03-04T13:48:50.860Z,42.40
2018-03-04T13:51:19.269Z,42.70
2018-03-04T13:53:47.650Z,41.99
2018-03-04T13:56:16.037Z,42.29
2018-03-04T13:58:44.434Z,42.31
2018-03-04T14:01:12.797Z,42.82
2018-03-04T14:03:41.201Z,43.82
2018-03-04T14:06:10.462Z,44.02
2018-03-04T14:08:39.658Z,43.47
2018-03-04T14:11:08.023Z,43.24
2018-03-04T14:13:36.384Z,43.82
2018-03-04T14:16:04.772Z,43.51
2018-03-04T14:18:33.166Z,43.64
2018-03-04T14:21:01.561Z,43.95
2018-03-04T14:23:29.969Z,44.26
2018-03-04T14:25:59.286Z,44.02
2018-03-04T14:28:27.780Z,44.04
2018-03-04T14:30:57.059Z,44.71
2018-03-04T14:33:25.481Z,45.03
2018-03-04T14:35:53.875Z,44.99
2018-03-04T14:38:22.273Z,45.45
2018-03-04T14:40:51.422Z,45.83
2018-03-04T14:43:19.847Z,45.73
2018-03-04T14:45:48.224Z,45.67
2018-03-04T14:48:17.374Z,45.61
2018-03-04T14:50:45.747Z,45.52
2018-03-04T14:53:14.180Z,45.28
2018-03-04T14:55:42.590Z,44.90
2018-03-04T14:58:10.968Z,45.01
2018-03-04T15:00:39.366Z,45.11
2018-03-04T15:03:07.773Z,44.90
2018-03-04T15:05:36.161Z,44.54
2018-03-04T15:08:04.719Z,44.50
2018-03-04T15:10:33.201Z,44.38
2018-03-04T15:13:01.605Z,44.75
2018-03-04T15:15:30.022Z,44.54
2018-03-04T15:17:58.412Z,44.96
2018-03-04T15:20:26.830Z,44.71
2018-03-04T15:22:55.210Z,44.86
2018-03-04T15:25:23.594Z,45.27
2018-03-04T15:27:51.998Z,44.88
2018-03-04T15:30:21.153Z,48.36
2018-03-04T15:32:49.509Z,45.32
2018-03-04T15:35:17.898Z,45.17
2018-03-04T15:37:46.324Z,45.42
2018-03-04T15:40:15.575Z,45.51
2018-03-04T15:42:44.030Z,45.55
2018-03-04T15:45:12.418Z,45.46
2018-03-04T15:47:40.826Z,45.38
2018-03-04T15:50:09.191Z,45.46
2018-03-04T15:52:37.682Z,46.20
2018-03-04T15:55:06.049Z,46.82
2018-03-04T15:57:34.439Z,47.15
2018-03-04T16:00:02.862Z,47.43
2018-03-04T16:02:32.056Z,47.67
2018-03-04T16:05:01.217Z,48.01
2018-03-04T16:07:29.579Z,48.14
2018-03-04T16:09:58.012Z,49.26
2018-03-04T16:12:27.156Z,48.65
2018-03-04T16:14:55.565Z,49.24
2018-03-04T16:17:23.940Z,49.07
2018-03-04T16:19:52.363Z,49.29
2018-03-04T16:22:20.808Z,49.51
2018-03-04T16:24:49.182Z,49.70
2018-03-04T16:27:17.607Z,49.93
2018-03-04T16:29:46.770Z,50.07
2018-03-04T16:32:15.150Z,51.85
2018-03-04T16:34:43.559Z,50.40
2018-03-04T16:37:11.957Z,49.49
2018-03-04T16:39:40.318Z,49.24
2018-03-04T16:42:08.747Z,49.25
2018-03-04T16:44:37.114Z,48.98
2018-03-04T16:47:05.479Z,48.95
2018-03-04T16:49:33.876Z,48.99
2018-03-04T16:52:02.293Z,49.08
2018-03-04T16:54:31.456Z,49.34
2018-03-04T16:56:59.850Z,49.52
2018-03-04T16:59:29.095Z,49.60
2018-03-04T17:01:57.512Z,49.69
2018-03-04T17:04:25.969Z,49.75
2018-03-04T17:06:54.375Z,49.86
2018-03-04T17:09:22.745Z,49.97
2018-03-04T17:11:51.184Z,50.19
2018-03-04T17:14:19.548Z,50.38
2018-03-04T17:16:48.706Z,50.71
2018-03-04T17:19:17.071Z,51.09
2018-03-04T17:21:45.436Z,51.08
2018-03-04T17:24:13.965Z,51.20
2018-03-04T17:26:42.342Z,51.25
2018-03-04T17:29:11.765Z,51.31
2018-03-04T17:31:40.907Z,51.35
2018-03-04T17:34:10.143Z,51.48
2018-03-04T17:36:39.313Z,51.58
2018-03-04T17:39:07.762Z,52.08
2018-03-04T17:41:36.206Z,52.02
2018-03-04T17:44:04.600Z,52.41
2018-03-04T17:46:32.986Z,52.22
2018-03-04T17:49:01.400Z,52.18
2018-03-04T17:51:29.786Z,52.17
2018-03-04T17:53:58.243Z,52.09
2018-03-04T17:56:26.605Z,52.13
2018-03-04T17:58:55.006Z,52.14
2018-03-04T18:01:23.370Z,52.15
2018-03-04T18:03:51.741Z,52.28
2018-03-04T18:06:20.148Z,52.25
2018-03-04T18:08:48.607Z,52.31
2018-03-04T18:11:17.775Z,52.48
2018-03-04T18:13:46.221Z,52.46
2018-03-04T18:16:14.586Z,52.65
2018-03-04T18:18:43.018Z,52.59
2018-03-04T18:21:11.508Z,52.49
2018-03-04T18:23:39.894Z,52.24
2018-03-04T18:26:08.302Z,52.17
2018-03-04T18:28:36.658Z,52.09
2018-03-04T18:31:05.024Z,52.10
2018-03-04T18:33:33.414Z,51.89
2018-03-04T18:36:01.829Z,51.74
2018-03-04T18:38:30.229Z,51.86
2018-03-04T18:40:58.638Z,51.74
2018-03-04T18:43:27.094Z,51.68
2018-03-04T18:45:56.226Z,51.86
2018-03-04T18:48:24.614Z,51.91
2018-03-04T18:50:53.055Z,52.06
2018-03-04T18:53:22.220Z,52.16
2018-03-04T18:55:50.627Z,51.99
2018-03-04T18:58:19.801Z,51.86
2018-03-04T19:00:48.204Z,51.91
2018-03-04T19:03:17.338Z,52.01
2018-03-04T19:05:45.714Z,51.97
2018-03-04T19:08:14.099Z,52.08
2018-03-04T19:10:42.461Z,52.27
2018-03-04T19:13:11.168Z,52.39
2018-03-04T19:15:39.578Z,52.49
2018-03-04T19:18:07.948Z,52.39
2018-03-04T19:20:36.392Z,52.44
2018-03-04T19:23:04.808Z,52.53
2018-03-04T19:25:33.281Z,52.48
2018-03-04T19:28:01.724Z,52.49
2018-03-04T19:30:30.132Z,52.58
2018-03-04T19:32:58.513Z,52.68
2018-03-04T19:35:26.882Z,52.83
2018-03-04T19:37:55.460Z,53.05
2018-03-04T19:40:23.853Z,53.13
2018-03-04T19:42:52.353Z,52.91
2018-03-04T19:45:20.764Z,52.82
2018-03-04T19:47:49.936Z,52.84
2018-03-04T19:50:18.359Z,53.10
2018-03-04T19:52:46.731Z,53.16
2018-03-04T19:55:15.114Z,53.30
2018-03-04T19:57:43.600Z,53.42
2018-03-04T20:00:11.982Z,53.54
2018-03-04T20:02:40.370Z,53.60
2018-03-04T20:05:08.863Z,53.83
2018-03-04T20:07:37.218Z,53.98
2018-03-04T20:10:05.590Z,54.17
2018-03-04T20:12:34.038Z,54.56
2018-03-04T20:15:02.366Z,54.83
2018-03-04T20:17:30.772Z,54.99
2018-03-04T20:19:59.167Z,55.16
2018-03-04T20:22:28.311Z,55.30
2018-03-04T20:24:56.873Z,55.31
2018-03-04T20:27:25.243Z,55.17
2018-03-04T20:29:54.418Z,55.25
2018-03-04T20:32:22.827Z,55.32
2018-03-04T20:34:51.198Z,55.48
2018-03-04T20:37:20.381Z,55.44
2018-03-04T20:39:49.520Z,55.89
2018-03-04T20:42:17.987Z,56.11
2018-03-04T20:44:46.708Z,56.27
2018-03-04T20:47:15.096Z,56.59
2018-03-04T20:49:43.506Z,56.81
2018-03-04T20:52:12.686Z,56.96
2018-03-04T20:54:41.114Z,57.24
2018-03-04T20:57:09.521Z,57.36
2018-03-04T20:59:37.970Z,57.63
2018-03-04T21:02:06.336Z,57.74
2018-03-04T21:04:34.758Z,57.93
2018-03-04T21:07:03.189Z,57.90
2018-03-04T21:09:31.568Z,58.04
2018-03-04T21:11:59.984Z,58.26
2018-03-04T21:14:28.350Z,58.29
2018-03-04T21:16:56.913Z,58.51
2018-03-04T21:19:25.712Z,58.73
2018-03-04T21:21:54.097Z,58.79
2018-03-04T21:24:22.498Z,58.95
2018-03-04T21:26:50.883Z,58.98
2018-03-04T21:29:19.314Z,59.33
2018-03-04T21:31:47.727Z,59.44
2018-03-04T21:34:16.122Z,59.54
2018-03-04T21:36:44.501Z,59.72
2018-03-04T21:39:12.874Z,59.89
2018-03-04T21:41:41.281Z,59.87
2018-03-04T21:44:09.688Z,60.03
2018-03-04T21:46:38.912Z,60.39
2018-03-04T21:49:07.288Z,60.51
2018-03-04T21:51:35.670Z,60.61
2018-03-04T21:54:04.041Z,60.73
2018-03-04T21:56:32.477Z,60.65
2018-03-04T21:59:00.863Z,61.00
2018-03-04T22:01:29.295Z,60.97
2018-03-04T22:03:57.712Z,61.30
2018-03-04T22:06:26.125Z,61.45
2018-03-04T22:08:54.524Z,61.76
2018-03-04T22:11:22.918Z,62.02
2018-03-04T22:13:51.357Z,62.25
2018-03-04T22:16:19.740Z,62.19
2018-03-04T22:18:48.128Z,62.32
2018-03-04T22:21:16.547Z,62.27
2018-03-04T22:23:44.944Z,62.46
2018-03-04T22:26:13.346Z,62.49
2018-03-04T22:28:41.746Z,62.64
2018-03-04T22:31:10.201Z,62.69
2018-03-04T22:33:39.352Z,63.08
2018-03-04T22:36:07.788Z,63.18
2018-03-04T22:38:36.916Z,62.95
2018-03-04T22:41:05.316Z,63.40
2018-03-04T22:43:33.728Z,63.35
2018-03-04T22:46:02.845Z,63.67
2018-03-04T22:48:31.227Z,63.82
2018-03-04T22:50:59.601Z,63.77
2018-03-04T22:53:28.115Z,64.08
2018-03-04T22:55:56.515Z,64.18
2018-03-04T22:58:24.892Z,64.37
2018-03-04T23:00:53.314Z,64.56
2018-03-04T23:03:21.689Z,64.74
2018-03-04T23:05:50.073Z,64.72
2018-03-04T23:08:18.462Z,64.96
2018-03-04T23:10:46.846Z,65.19
2018-03-04T23:13:15.233Z,65.11
2018-03-04T23:15:43.632Z,65.15
2018-03-04T23:18:12.040Z,64.94
2018-03-04T23:20:41.176Z,64.89
2018-03-04T23:23:09.610Z,64.84
2018-03-04T23:25:37.977Z,64.93
2018-03-04T23:28:06.354Z,65.10
2018-03-04T23:30:34.751Z,65.08
2018-03-04T23:33:03.887Z,65.07
2018-03-04T23:35:32.271Z,65.02
2018-03-04T23:38:00.662Z,64.98
2018-03-04T23:40:29.053Z,65.16
2018-03-04T23:42:57.449Z,65.24
2018-03-04T23:45:25.821Z,65.24
2018-03-04T23:47:54.218Z,65.27
2018-03-04T23:50:22.612Z,65.02
2018-03-04T23:52:51.774Z,65.03
2018-03-04T23:55:20.226Z,65.13
2018-03-04T23:57:48.590Z,64.94
